Time;durP1;ratioP1;P1;durP2;ratioP2;P2;SDS_P1;SDS_P2;PMS_P1;PMS_P2;Temp;Humidity;BMP_temperature;BMP_pressure;BME280_temperature;BME280_humidity;BME280_pressure;Samples;Min_cycle;Max_cycle;Signal;HPM_P1;HPM_P2
2023/01/23 00:01:09;;;;;;;16.80;9.23;;;4.90;97.60;;;;;;4975393;28;20042;-63
2023/01/23 00:03:35;;;;;;;15.95;8.77;;;4.90;97.60;;;;;;4972317;28;20049;-64
2023/01/23 00:06:10;;;;;;;18.90;8.88;;;5.00;97.40;;;;;;4972854;28;20043;-64
2023/01/23 00:08:37;;;;;;;16.40;8.63;;;4.90;97.50;;;;;;4968827;28;20053;-63
2023/01/23 00:11:05;;;;;;;16.52;8.73;;;4.90;97.60;;;;;;4972653;28;20042;-63
2023/01/23 00:13:32;;;;;;;16.92;8.52;;;5.00;97.70;;;;;;4975584;28;20038;-63
2023/01/23 00:15:57;;;;;;;15.75;8.93;;;5.00;97.80;;;;;;4974025;28;20034;-64
2023/01/23 00:18:23;;;;;;;17.80;9.40;;;5.00;97.90;;;;;;4972089;28;20035;-64
2023/01/23 00:20:49;;;;;;;18.27;8.75;;;4.90;97.90;;;;;;4961705;28;20064;-64
2023/01/23 00:23:15;;;;;;;16.40;8.88;;;4.90;98.00;;;;;;4970944;28;20049;-63
2023/01/23 00:25:41;;;;;;;16.00;8.43;;;5.00;98.00;;;;;;4970475;28;20041;-64
2023/01/23 00:28:06;;;;;;;18.40;9.35;;;5.00;98.00;;;;;;4969713;28;20047;-63
2023/01/23 00:30:32;;;;;;;20.23;10.63;;;5.00;98.00;;;;;;4949140;28;20133;-63
2023/01/23 00:32:58;;;;;;;19.05;9.52;;;5.10;98.00;;;;;;4970459;28;20026;-63
2023/01/23 00:35:25;;;;;;;17.38;9.13;;;5.00;97.90;;;;;;4971031;28;20035;-63
2023/01/23 00:37:53;;;;;;;16.90;9.02;;;5.00;97.90;;;;;;4971766;28;20524;-64
2023/01/23 00:40:18;;;;;;;15.27;8.40;;;5.00;97.90;;;;;;4978299;28;20030;-64
2023/01/23 00:42:44;;;;;;;21.17;10.32;;;5.00;98.00;;;;;;4963799;28;20026;-64
2023/01/23 00:45:10;;;;;;;13.45;8.50;;;5.00;98.00;;;;;;4971220;28;20109;-64
2023/01/23 00:47:36;;;;;;;16.30;8.98;;;5.00;98.00;;;;;;4955621;28;20031;-64
2023/01/23 00:50:02;;;;;;;16.40;8.65;;;5.00;97.90;;;;;;4974290;28;20699;-64
2023/01/23 00:52:29;;;;;;;16.13;7.88;;;5.00;98.20;;;;;;4969276;28;20050;-63
2023/01/23 00:54:54;;;;;;;16.90;9.65;;;4.90;98.20;;;;;;4959258;28;20100;-64
2023/01/23 00:57:20;;;;;;;16.15;8.63;;;5.00;98.10;;;;;;4957530;28;20031;-64
2023/01/23 00:59:46;;;;;;;18.10;8.95;;;5.00;98.20;;;;;;4964012;28;20462;-64
2023/01/23 01:02:12;;;;;;;18.00;8.95;;;5.00;97.90;;;;;;4950762;28;20741;-64
2023/01/23 01:04:38;;;;;;;14.05;8.57;;;5.00;97.80;;;;;;4972778;28;20573;-63
2023/01/23 01:07:03;;;;;;;15.65;8.48;;;5.10;97.70;;;;;;4955383;28;20410;-64
2023/01/23 01:09:29;;;;;;;14.85;8.20;;;5.10;97.80;;;;;;4956073;28;20042;-64
2023/01/23 01:11:55;;;;;;;14.10;7.93;;;5.00;97.90;;;;;;4971419;28;20375;-64
2023/01/23 01:14:21;;;;;;;15.07;8.40;;;5.00;98.10;;;;;;4972446;28;20061;-63
2023/01/23 01:16:47;;;;;;;14.73;8.10;;;5.00;98.20;;;;;;4956000;28;20030;-64
2023/01/23 01:19:14;;;;;;;15.93;9.73;;;5.10;98.10;;;;;;4975663;28;20121;-64
2023/01/23 01:21:41;;;;;;;14.88;8.20;;;5.10;98.20;;;;;;4956082;28;20026;-64
2023/01/23 01:24:07;;;;;;;16.58;9.02;;;5.10;98.10;;;;;;4972434;28;20041;-64
2023/01/23 01:26:34;;;;;;;16.17;9.20;;;5.10;98.20;;;;;;4973442;28;20109;-64
2023/01/23 01:28:59;;;;;;;16.15;8.35;;;5.00;98.10;;;;;;4976143;28;20113;-64
2023/01/23 01:31:26;;;;;;;16.05;8.80;;;5.00;98.10;;;;;;4973682;28;20069;-64
2023/01/23 01:33:53;;;;;;;17.52;9.10;;;5.00;98.20;;;;;;4952728;28;20510;-63
2023/01/23 01:36:22;;;;;;;17.48;8.88;;;5.00;98.20;;;;;;4954254;28;20027;-63
2023/01/23 01:38:49;;;;;;;16.88;9.35;;;5.00;98.10;;;;;;4975433;28;20054;-63
2023/01/23 01:41:16;;;;;;;15.60;9.32;;;5.00;98.20;;;;;;4973392;28;20038;-64
2023/01/23 01:43:43;;;;;;;16.88;9.40;;;5.00;98.20;;;;;;4978363;28;20033;-63
2023/01/23 01:46:24;;;;;;;17.13;8.77;;;5.00;98.00;;;;;;4976340;28;20367;-63
2023/01/23 01:48:52;;;;;;;16.67;9.40;;;5.00;98.00;;;;;;4970956;28;20489;-63
2023/01/23 01:51:45;;;;;;;21.00;11.43;;;5.00;97.90;;;;;;4970236;28;20055;-64
2023/01/23 01:54:27;;;;;;;21.30;10.10;;;5.00;97.90;;;;;;4959543;28;20110;-63
2023/01/23 01:57:17;;;;;;;18.15;9.07;;;5.00;97.90;;;;;;4970065;28;20041;-64
2023/01/23 02:00:07;;;;;;;19.30;8.95;;;5.00;97.80;;;;;;4961880;28;20030;-64
2023/01/23 02:02:59;;;;;;;17.45;8.98;;;5.00;97.80;;;;;;4972670;28;20042;-64
2023/01/23 02:05:46;;;;;;;16.65;9.00;;;5.00;98.00;;;;;;4952020;28;20573;-64
2023/01/23 02:08:32;;;;;;;;;;;5.00;98.00;;;;;;4955017;28;20050;-64
2023/01/23 02:11:02;;;;;;;18.25;9.45;;;5.00;97.90;;;;;;4954649;28;19925;-64
2023/01/23 02:13:38;;;;;;;20.42;10.65;;;5.00;98.10;;;;;;4970086;28;20812;-64
2023/01/23 02:16:07;;;;;;;;;;;5.00;98.10;;;;;;4973011;28;20030;-64
2023/01/23 02:18:35;;;;;;;14.95;7.88;;;5.00;98.00;;;;;;4970248;28;19921;-63
2023/01/23 02:21:05;;;;;;;16.02;8.60;;;5.00;98.00;;;;;;4954229;28;20153;-64
2023/01/23 02:23:37;;;;;;;18.48;9.98;;;5.00;98.00;;;;;;4957446;28;20525;-64
2023/01/23 02:26:08;;;;;;;16.58;8.48;;;5.10;98.00;;;;;;4974421;28;20034;-64
2023/01/23 02:28:42;;;;;;;18.38;8.65;;;5.10;97.90;;;;;;4969238;28;20593;-63
2023/01/23 02:31:10;;;;;;;17.15;9.90;;;5.10;98.00;;;;;;4959110;28;20049;-64
2023/01/23 02:33:37;;;;;;;17.88;9.98;;;5.10;98.00;;;;;;4970427;28;20046;-64
2023/01/23 02:36:07;;;;;;;19.83;9.82;;;5.10;97.90;;;;;;4954578;28;20027;-64
2023/01/23 02:38:47;;;;;;;16.02;8.95;;;5.10;98.20;;;;;;4968212;28;20059;-64
2023/01/23 02:41:16;;;;;;;17.70;9.00;;;5.10;98.10;;;;;;4959886;28;20685;-64
2023/01/23 02:43:44;;;;;;;20.60;11.02;;;5.10;97.90;;;;;;4953495;28;20033;-64
2023/01/23 02:46:11;;;;;;;17.98;9.10;;;5.00;98.00;;;;;;4957154;28;20236;-64
2023/01/23 02:48:39;;;;;;;22.50;10.15;;;5.00;98.10;;;;;;4956574;28;20042;-64
2023/01/23 02:51:06;;;;;;;17.05;9.32;;;5.00;98.00;;;;;;4953854;28;20053;-64
2023/01/23 02:53:32;;;;;;;17.20;9.40;;;5.00;97.80;;;;;;4971135;28;20031;-64
2023/01/23 02:55:59;;;;;;;20.38;10.18;;;5.00;97.80;;;;;;4975004;28;20041;-63
2023/01/23 03:01:10;;;;;;;18.33;9.93;;;5.00;97.90;;;;;;4961539;28;20057;-64
2023/01/23 03:03:40;;;;;;;17.00;9.60;;;4.90;97.70;;;;;;4954413;28;20089;-64
2023/01/23 03:06:06;;;;;;;18.13;9.57;;;4.90;97.80;;;;;;4972186;28;20036;-64
2023/01/23 03:08:35;;;;;;;22.83;10.32;;;4.90;97.90;;;;;;4952329;28;20034;-64
2023/01/23 03:11:03;;;;;;;19.92;10.10;;;4.90;97.70;;;;;;4971830;28;20030;-64
2023/01/23 03:13:29;;;;;;;18.55;9.75;;;5.00;97.70;;;;;;4959014;28;20032;-64
2023/01/23 03:15:56;;;;;;;18.17;9.95;;;5.00;97.60;;;;;;4971250;28;20041;-64
2023/01/23 03:18:23;;;;;;;21.27;10.75;;;5.00;98.00;;;;;;4953928;28;20517;-64
2023/01/23 03:20:49;;;;;;;21.02;10.73;;;5.00;97.80;;;;;;4960900;28;20034;-64
2023/01/23 03:23:15;;;;;;;21.90;11.25;;;5.00;97.60;;;;;;4970515;28;20121;-63
2023/01/23 03:25:46;;;;;;;22.05;11.43;;;5.00;97.40;;;;;;4970347;28;20819;-63
2023/01/23 03:30:11;;;;;;;19.00;11.02;;;5.00;97.40;;;;;;4955209;28;20537;-63
2023/01/23 03:30:57;;;;;;;20.53;10.27;;;4.90;97.90;;;;;;4969308;28;20057;-64
2023/01/23 03:33:24;;;;;;;23.98;11.80;;;4.90;97.60;;;;;;4954231;28;20054;-64
2023/01/23 03:35:50;;;;;;;23.27;10.52;;;4.90;97.70;;;;;;4971697;28;20088;-64
2023/01/23 03:38:18;;;;;;;22.67;10.65;;;4.90;97.70;;;;;;4953118;28;20039;-64
2023/01/23 03:43:36;;;;;;;20.42;9.30;;;4.90;97.80;;;;;;4957070;28;20023;-63
2023/01/23 03:46:04;;;;;;;23.45;10.35;;;5.00;97.70;;;;;;4951401;28;20035;-63
2023/01/23 03:48:30;;;;;;;23.00;11.00;;;5.00;97.50;;;;;;4952577;28;20038;-64
2023/01/23 03:50:56;;;;;;;23.13;11.23;;;5.00;97.60;;;;;;4956679;28;20465;-64
2023/01/23 03:53:24;;;;;;;20.45;10.98;;;5.00;97.50;;;;;;4971388;28;20125;-64
2023/01/23 03:55:50;;;;;;;21.75;10.88;;;5.00;97.40;;;;;;4967958;28;20031;-64
2023/01/23 03:58:18;;;;;;;18.17;10.20;;;5.00;97.30;;;;;;4954345;28;20042;-64
2023/01/23 04:00:45;;;;;;;23.02;11.10;;;5.00;97.40;;;;;;4955481;28;20042;-64
2023/01/23 04:03:11;;;;;;;21.48;10.13;;;5.00;97.40;;;;;;4952314;28;20143;-64
2023/01/23 04:05:38;;;;;;;22.80;11.48;;;5.00;97.10;;;;;;4949966;28;20034;-64
2023/01/23 04:08:04;;;;;;;22.48;10.68;;;5.00;97.20;;;;;;4953794;28;20030;-64
2023/01/23 04:10:31;;;;;;;20.75;10.57;;;4.90;97.40;;;;;;4969757;28;20042;-64
2023/01/23 04:13:03;;;;;;;20.02;9.20;;;4.90;97.40;;;;;;4960176;28;20034;-64
2023/01/23 04:15:32;;;;;;;18.33;9.38;;;5.00;97.40;;;;;;4963989;28;20153;-64
2023/01/23 04:17:58;;;;;;;19.95;9.75;;;5.00;97.50;;;;;;4958013;28;20657;-63
2023/01/23 04:20:25;;;;;;;19.08;9.93;;;5.00;97.60;;;;;;4955537;28;20039;-64
2023/01/23 04:22:52;;;;;;;23.05;10.88;;;5.00;97.60;;;;;;4962045;28;20696;-63
2023/01/23 04:25:18;;;;;;;23.60;10.52;;;5.00;97.40;;;;;;4955501;28;20042;-64
2023/01/23 04:27:44;;;;;;;18.73;10.10;;;5.00;97.50;;;;;;4961808;28;20726;-64
2023/01/23 04:30:11;;;;;;;22.25;10.38;;;5.00;97.40;;;;;;4961008;28;20410;-64
2023/01/23 04:32:36;;;;;;;20.48;9.98;;;5.00;97.40;;;;;;4965087;28;20037;-64
2023/01/23 04:35:03;;;;;;;24.10;10.85;;;5.00;97.40;;;;;;4974365;28;20058;-64
2023/01/23 04:37:29;;;;;;;20.35;10.07;;;5.00;97.50;;;;;;4958452;28;20752;-63
2023/01/23 04:39:55;;;;;;;22.45;10.63;;;5.00;97.40;;;;;;4962396;28;20046;-63
2023/01/23 04:42:22;;;;;;;22.75;11.52;;;5.00;97.40;;;;;;4955275;28;20097;-64
2023/01/23 04:45:01;;;;;;;22.75;10.70;;;5.10;97.30;;;;;;4963089;28;20030;-64
2023/01/23 04:47:32;;;;;;;21.23;10.50;;;5.10;97.30;;;;;;4972851;28;20037;-64
2023/01/23 04:49:59;;;;;;;20.70;10.85;;;5.10;97.40;;;;;;4962084;28;20034;-64
2023/01/23 04:52:28;;;;;;;20.23;10.68;;;5.10;97.40;;;;;;4976519;28;20030;-64
2023/01/23 04:54:56;;;;;;;21.88;10.98;;;5.00;97.50;;;;;;4978329;28;20038;-64
2023/01/23 04:57:22;;;;;;;18.85;9.50;;;5.00;97.70;;;;;;4956850;28;20073;-64
2023/01/23 04:59:54;;;;;;;24.27;11.52;;;5.00;97.70;;;;;;4954673;28;20050;-64
2023/01/23 05:02:20;;;;;;;23.65;11.77;;;4.90;97.70;;;;;;4955860;28;20038;-64
2023/01/23 05:04:47;;;;;;;27.52;14.38;;;5.00;97.60;;;;;;4962179;28;20045;-63
2023/01/23 05:07:13;;;;;;;23.67;11.27;;;4.90;97.30;;;;;;4962476;28;20049;-63
2023/01/23 05:09:44;;;;;;;26.45;12.15;;;5.00;97.40;;;;;;4953906;28;20816;-64
2023/01/23 05:12:13;;;;;;;25.90;12.23;;;5.00;97.40;;;;;;4956803;28;20037;-64
2023/01/23 05:14:40;;;;;;;31.27;13.95;;;5.00;97.30;;;;;;4957474;28;20033;-64
2023/01/23 05:17:06;;;;;;;33.35;13.90;;;5.00;97.10;;;;;;4962068;28;20038;-64
2023/01/23 05:19:47;;;;;;;29.35;12.93;;;5.00;97.20;;;;;;4971746;28;20497;-64
2023/01/23 05:22:12;;;;;;;28.67;13.60;;;4.90;97.10;;;;;;4951334;28;20031;-64
2023/01/23 05:24:38;;;;;;;24.92;12.02;;;4.90;97.30;;;;;;4973372;28;20596;-64
2023/01/23 05:27:04;;;;;;;31.48;13.23;;;4.90;97.50;;;;;;4956639;28;20632;-64
2023/01/23 05:29:34;;;;;;;27.73;12.15;;;4.90;97.50;;;;;;4953578;28;20041;-64
2023/01/23 05:32:05;;;;;;;30.52;13.50;;;4.90;97.50;;;;;;4952461;28;20513;-64
2023/01/23 05:34:37;;;;;;;28.00;13.35;;;4.90;97.50;;;;;;4972181;28;20046;-64
2023/01/23 05:37:11;;;;;;;26.88;12.52;;;5.00;97.70;;;;;;4953861;28;20031;-64
2023/01/23 05:39:38;;;;;;;32.17;12.95;;;5.00;97.60;;;;;;4974866;28;20034;-64
2023/01/23 05:42:04;;;;;;;27.83;12.90;;;5.00;97.40;;;;;;4973804;28;20552;-64
2023/01/23 05:44:58;;;;;;;28.00;13.32;;;5.00;97.40;;;;;;4955078;28;20942;-64
2023/01/23 05:47:33;;;;;;;25.55;12.30;;;5.00;97.50;;;;;;4971468;28;20105;-64
2023/01/23 05:49:59;;;;;;;30.33;13.43;;;5.00;97.30;;;;;;4955858;28;20824;-64
2023/01/23 05:52:30;;;;;;;27.77;11.93;;;5.00;97.30;;;;;;4953019;28;20820;-64
2023/01/23 05:54:56;;;;;;;22.65;11.45;;;5.00;97.40;;;;;;4962427;28;20032;-64
2023/01/23 05:57:22;;;;;;;30.05;13.10;;;5.00;97.50;;;;;;4974911;28;20039;-64
2023/01/23 06:00:12;;;;;;;25.88;12.45;;;5.00;97.60;;;;;;4973669;28;20030;-63
2023/01/23 06:02:41;;;;;;;27.27;12.55;;;4.90;97.30;;;;;;4973403;28;20777;-63
2023/01/23 06:05:33;;;;;;;25.75;12.70;;;4.90;97.40;;;;;;4973177;28;20038;-64
2023/01/23 06:08:03;;;;;;;27.23;12.77;;;4.90;97.40;;;;;;4954050;28;20038;-64
2023/01/23 06:10:29;;;;;;;23.73;12.10;;;4.90;97.40;;;;;;4956322;28;20056;-64
2023/01/23 06:12:55;;;;;;;27.48;12.75;;;4.90;97.50;;;;;;4960781;28;20035;-64
2023/01/23 06:15:21;;;;;;;27.98;13.55;;;4.90;97.10;;;;;;4960656;28;20027;-64
2023/01/23 06:17:48;;;;;;;28.02;12.40;;;4.80;97.30;;;;;;4954345;28;20481;-64
2023/01/23 06:20:14;;;;;;;30.10;12.15;;;4.90;97.40;;;;;;4957350;28;20047;-64
2023/01/23 06:22:44;;;;;;;22.55;12.57;;;4.80;97.10;;;;;;4956527;28;20037;-63
2023/01/23 06:25:12;;;;;;;26.48;12.38;;;4.80;97.40;;;;;;4953711;28;20089;-64
2023/01/23 06:27:38;;;;;;;26.13;11.77;;;4.80;97.40;;;;;;4972127;28;21244;-64
2023/01/23 06:30:07;;;;;;;27.67;11.93;;;4.90;97.30;;;;;;4959433;28;20042;-64
2023/01/23 06:32:38;;;;;;;27.70;12.38;;;4.90;97.20;;;;;;4959821;28;20032;-63
2023/01/23 06:35:06;;;;;;;27.80;13.27;;;4.90;97.20;;;;;;4961308;28;20576;-64
2023/01/23 06:37:36;;;;;;;26.13;12.80;;;4.90;97.30;;;;;;4953316;28;20030;-64
2023/01/23 06:40:03;;;;;;;26.50;12.57;;;4.90;97.20;;;;;;4960653;28;20122;-64
2023/01/23 06:42:29;;;;;;;26.33;13.25;;;4.90;97.30;;;;;;4952077;28;20828;-64
2023/01/23 06:44:56;;;;;;;29.05;11.95;;;4.90;97.40;;;;;;4960937;28;20537;-64
2023/01/23 06:47:24;;;;;;;24.63;12.30;;;4.80;97.60;;;;;;4960823;28;20419;-63
2023/01/23 06:49:57;;;;;;;28.02;13.15;;;4.80;97.70;;;;;;4957802;28;20035;-64
2023/01/23 06:52:23;;;;;;;24.73;11.93;;;4.90;97.70;;;;;;4957236;28;20030;-63
2023/01/23 06:54:49;;;;;;;26.15;12.45;;;4.90;97.40;;;;;;4959723;28;20034;-63
2023/01/23 06:57:15;;;;;;;26.23;12.80;;;4.90;97.40;;;;;;4951040;28;20153;-63
2023/01/23 06:59:42;;;;;;;24.95;12.32;;;4.90;97.40;;;;;;4953102;28;20034;-63
2023/01/23 07:02:11;;;;;;;25.33;12.27;;;4.90;97.40;;;;;;4956949;28;20034;-63
2023/01/23 07:04:42;;;;;;;24.85;13.60;;;4.90;97.30;;;;;;4952939;28;20383;-64
2023/01/23 07:07:09;;;;;;;28.15;11.98;;;4.80;97.20;;;;;;4956900;28;20034;-63
2023/01/23 07:09:35;;;;;;;29.35;13.32;;;4.80;97.30;;;;;;4955876;28;20043;-64
2023/01/23 07:12:07;;;;;;;28.10;13.65;;;4.80;97.20;;;;;;4957057;28;20050;-63
2023/01/23 07:14:33;;;;;;;31.10;14.13;;;4.90;97.20;;;;;;4951979;28;20611;-63
2023/01/23 07:16:59;;;;;;;28.38;13.45;;;4.80;97.10;;;;;;4955123;28;20818;-64
2023/01/23 07:19:25;;;;;;;25.30;12.27;;;4.80;97.10;;;;;;4957385;28;20317;-63
2023/01/23 07:21:52;;;;;;;25.35;12.43;;;4.90;97.10;;;;;;4956135;28;20841;-64
2023/01/23 07:24:18;;;;;;;29.40;12.38;;;4.80;97.30;;;;;;4974142;28;20045;-64
2023/01/23 07:26:44;;;;;;;25.23;12.00;;;4.90;97.40;;;;;;4973985;28;20776;-64
2023/01/23 07:29:10;;;;;;;27.58;13.95;;;4.90;97.40;;;;;;4976728;28;20902;-62
2023/01/23 07:31:36;;;;;;;28.60;13.07;;;4.90;97.40;;;;;;4968378;28;20506;-62
2023/01/23 07:34:02;;;;;;;27.67;13.80;;;4.90;97.40;;;;;;4969322;28;20041;-62
2023/01/23 07:36:28;;;;;;;27.60;12.52;;;5.00;97.10;;;;;;4971788;28;20248;-63
2023/01/23 07:38:57;;;;;;;29.90;13.15;;;4.90;97.20;;;;;;4955309;28;20043;-63
2023/01/23 07:41:23;;;;;;;30.38;13.70;;;5.00;97.10;;;;;;4969579;28;20061;-60
2023/01/23 07:43:49;;;;;;;27.27;12.85;;;5.00;96.90;;;;;;4971989;28;20062;-62
2023/01/23 07:46:15;;;;;;;23.95;12.68;;;5.00;97.00;;;;;;4969844;28;20085;-63
2023/01/23 07:48:40;;;;;;;23.75;11.25;;;5.00;97.00;;;;;;4976953;28;20050;-63
2023/01/23 07:51:06;;;;;;;22.67;11.65;;;5.00;97.10;;;;;;4975175;28;20070;-63
2023/01/23 07:53:32;;;;;;;26.08;12.70;;;5.00;97.30;;;;;;4980043;28;20490;-64
2023/01/23 07:55:58;;;;;;;28.75;13.27;;;5.10;97.10;;;;;;4975748;28;20034;-60
2023/01/23 07:58:24;;;;;;;24.75;12.55;;;5.10;96.90;;;;;;4971991;28;20494;-63
2023/01/23 08:00:50;;;;;;;28.48;13.15;;;5.10;97.00;;;;;;4977623;28;20901;-63
2023/01/23 08:03:16;;;;;;;26.67;12.68;;;5.10;97.00;;;;;;4979772;28;20053;-63
2023/01/23 08:05:46;;;;;;;26.70;12.95;;;5.10;97.00;;;;;;4974584;28;20064;-63
2023/01/23 08:08:12;;;;;;;26.95;13.13;;;5.20;96.60;;;;;;4977144;28;20054;-66
2023/01/23 08:10:38;;;;;;;23.75;12.27;;;5.20;96.50;;;;;;4957860;28;20042;-66
2023/01/23 08:13:03;;;;;;;29.95;12.65;;;5.20;96.60;;;;;;4978237;28;20034;-66
2023/01/23 08:15:29;;;;;;;26.80;13.10;;;5.20;96.50;;;;;;4974041;28;20573;-65
2023/01/23 08:17:55;;;;;;;26.42;13.27;;;5.20;96.40;;;;;;4979688;28;20973;-64
2023/01/23 08:20:22;;;;;;;26.23;12.65;;;5.30;96.40;;;;;;4973379;28;20121;-65
2023/01/23 08:22:47;;;;;;;22.92;12.40;;;5.30;96.40;;;;;;4972583;28;20744;-65
2023/01/23 08:25:13;;;;;;;24.52;12.68;;;5.30;96.40;;;;;;4971210;28;20031;-65
2023/01/23 08:27:39;;;;;;;28.83;13.75;;;5.30;96.40;;;;;;4973039;28;20064;-64
2023/01/23 08:30:05;;;;;;;26.23;13.73;;;5.30;96.40;;;;;;4975883;28;20039;-64
2023/01/23 08:32:33;;;;;;;30.20;13.63;;;5.30;96.50;;;;;;4975652;28;20035;-68
2023/01/23 08:34:59;;;;;;;23.20;12.38;;;5.30;96.30;;;;;;4979433;28;20041;-64
2023/01/23 08:37:24;;;;;;;28.85;13.02;;;5.30;96.20;;;;;;4979151;28;20030;-65
2023/01/23 08:39:50;;;;;;;26.13;12.60;;;5.30;96.10;;;;;;4979904;28;20069;-64
2023/01/23 08:42:16;;;;;;;29.15;13.23;;;5.30;95.90;;;;;;4973639;28;20046;-64
2023/01/23 08:44:42;;;;;;;27.00;13.00;;;5.40;96.20;;;;;;4972445;28;20022;-65
2023/01/23 08:47:07;;;;;;;26.63;13.43;;;5.40;96.20;;;;;;4984913;28;20042;-65
2023/01/23 08:49:33;;;;;;;26.17;12.52;;;5.30;95.90;;;;;;4976542;28;20057;-65
2023/01/23 08:51:59;;;;;;;25.13;13.10;;;5.30;96.00;;;;;;4979748;28;20034;-65
2023/01/23 08:54:25;;;;;;;22.58;11.93;;;5.30;96.10;;;;;;4978010;28;20541;-65
2023/01/23 08:56:50;;;;;;;26.83;12.68;;;5.20;96.10;;;;;;4977242;28;20465;-65
2023/01/23 08:59:16;;;;;;;28.00;14.30;;;5.30;95.90;;;;;;4978891;28;20038;-66
2023/01/23 09:01:42;;;;;;;25.60;13.38;;;5.30;96.00;;;;;;4973185;28;20067;-66
2023/01/23 09:04:08;;;;;;;27.33;12.85;;;5.30;96.00;;;;;;4975054;28;20074;-65
2023/01/23 09:06:33;;;;;;;25.88;13.07;;;5.30;95.90;;;;;;4972452;28;20022;-65
2023/01/23 09:08:59;;;;;;;25.95;12.38;;;5.30;95.80;;;;;;4975019;28;20503;-64
2023/01/23 09:11:25;;;;;;;21.70;11.32;;;5.40;96.00;;;;;;4975694;28;20089;-64
2023/01/23 09:13:51;;;;;;;22.83;11.50;;;5.40;95.80;;;;;;4975461;28;20581;-64
2023/01/23 09:16:17;;;;;;;24.25;12.00;;;5.40;96.00;;;;;;4971475;28;20050;-65
2023/01/23 09:18:42;;;;;;;27.35;13.65;;;5.50;96.00;;;;;;4977184;28;20033;-65
2023/01/23 09:21:11;;;;;;;26.08;13.43;;;5.60;95.70;;;;;;4976454;28;20034;-65
2023/01/23 09:23:37;;;;;;;25.77;12.43;;;5.50;95.40;;;;;;4971658;28;20038;-64
2023/01/23 09:26:09;;;;;;;26.40;13.75;;;5.60;95.40;;;;;;4974193;28;20122;-64
2023/01/23 09:28:35;;;;;;;25.23;13.15;;;5.60;95.20;;;;;;4976999;28;20129;-64
2023/01/23 09:31:06;;;;;;;25.30;12.25;;;5.40;95.50;;;;;;4974145;28;20034;-63
2023/01/23 09:33:35;;;;;;;23.45;12.75;;;5.50;95.50;;;;;;4978711;28;20080;-64
2023/01/23 09:36:01;;;;;;;27.08;12.88;;;5.50;95.50;;;;;;4974703;28;20256;-64
2023/01/23 09:38:27;;;;;;;24.92;13.32;;;5.50;95.30;;;;;;4976042;28;20077;-64
2023/01/23 09:40:56;;;;;;;29.83;14.57;;;5.50;95.30;;;;;;4973539;28;20085;-64
2023/01/23 09:43:38;;;;;;;30.65;14.13;;;5.50;95.50;;;;;;4971708;28;20040;-64
2023/01/23 09:46:16;;;;;;;26.83;13.60;;;5.50;95.10;;;;;;4977293;28;20545;-64
2023/01/23 09:48:44;;;;;;;24.92;12.57;;;5.40;95.00;;;;;;4974317;28;20403;-64
2023/01/23 09:51:38;;;;;;;25.40;13.70;;;5.50;95.10;;;;;;4976216;28;20038;-64
2023/01/23 09:54:16;;;;;;;21.50;12.43;;;5.50;95.20;;;;;;4978345;28;20058;-64
2023/01/23 09:56:45;;;;;;;26.67;13.27;;;5.50;95.20;;;;;;4976770;28;20470;-64
2023/01/23 09:59:24;;;;;;;23.00;12.63;;;5.50;95.10;;;;;;4976339;28;20709;-65
2023/01/23 10:01:50;;;;;;;26.50;12.85;;;5.40;95.00;;;;;;4977095;28;20768;-64
2023/01/23 10:04:18;;;;;;;24.60;12.32;;;5.50;95.00;;;;;;4974216;28;20038;-67
2023/01/23 10:07:17;;;;;;;24.02;12.88;;;5.50;95.00;;;;;;4972165;28;20037;-64
2023/01/23 10:09:46;;;;;;;24.67;12.98;;;5.60;94.70;;;;;;4970978;28;20062;-64
2023/01/23 10:12:37;;;;;;;24.05;12.88;;;5.60;95.00;;;;;;4968414;28;20038;-65
2023/01/23 10:15:26;;;;;;;24.17;12.30;;;5.60;95.10;;;;;;4974716;28;20034;-65
2023/01/23 10:18:30;;;;;;;29.75;13.02;;;5.60;95.00;;;;;;4976856;28;20038;-65
2023/01/23 10:21:51;;;;;;;29.33;14.20;;;5.60;94.90;;;;;;4977287;28;20121;-64
2023/01/23 10:24:40;;;;;;;23.27;12.35;;;5.60;94.80;;;;;;4924006;29;20087;-63
2023/01/23 10:27:17;;;;;;;26.10;13.15;;;5.60;95.10;;;;;;4910593;29;20142;-64
2023/01/23 10:29:51;;;;;;;30.92;14.88;;;5.60;95.20;;;;;;4966694;28;20034;-64
2023/01/23 10:32:38;;;;;;;31.85;13.90;;;5.70;95.10;;;;;;4971428;28;20043;-67
2023/01/23 10:35:09;;;;;;;25.10;13.18;;;5.70;95.10;;;;;;4971009;28;20038;-65
2023/01/23 10:37:51;;;;;;;26.63;12.93;;;5.80;94.90;;;;;;4972307;28;20058;-64
2023/01/23 10:41:12;;;;;;;26.98;13.35;;;5.70;94.80;;;;;;4967860;28;20092;-64
2023/01/23 10:43:18;;;;;;;24.95;13.77;;;5.70;94.70;;;;;;4971332;28;20089;-64
2023/01/23 10:45:46;;;;;;;25.17;13.38;;;5.70;94.70;;;;;;4975268;28;20038;-65
2023/01/23 10:48:31;;;;;;;25.77;13.27;;;5.60;94.70;;;;;;4967140;28;20038;-64
2023/01/23 10:50:57;;;;;;;28.27;13.50;;;5.70;94.80;;;;;;4974279;28;20034;-62
2023/01/23 10:53:24;;;;;;;28.20;14.35;;;5.70;94.70;;;;;;4970860;28;20114;-67
2023/01/23 10:55:52;;;;;;;23.52;12.60;;;5.80;94.60;;;;;;4971951;28;20045;-67
2023/01/23 10:58:45;;;;;;;28.30;14.50;;;5.80;94.70;;;;;;4975118;28;20037;-66
2023/01/23 11:01:34;;;;;;;28.63;13.77;;;5.80;94.40;;;;;;4973715;28;20046;-68
2023/01/23 11:04:17;;;;;;;27.33;14.10;;;5.80;94.10;;;;;;4972210;28;20042;-65
2023/01/23 11:06:44;;;;;;;28.30;13.68;;;5.80;94.40;;;;;;4970783;28;20109;-65
2023/01/23 11:09:19;;;;;;;26.67;13.07;;;5.80;94.40;;;;;;4971843;28;20044;-67
2023/01/23 11:12:02;;;;;;;27.35;13.65;;;5.80;94.40;;;;;;4971164;28;20159;-72
2023/01/23 11:14:28;;;;;;;28.48;13.98;;;5.90;94.40;;;;;;4971812;28;20096;-67
2023/01/23 11:17:12;;;;;;;24.45;12.70;;;5.90;94.10;;;;;;4972556;28;20030;-63
2023/01/23 11:19:38;;;;;;;26.05;14.05;;;6.00;94.20;;;;;;4973779;28;20046;-66
2023/01/23 11:22:23;;;;;;;24.75;13.25;;;6.00;94.30;;;;;;4970226;28;20035;-68
2023/01/23 11:24:49;;;;;;;26.27;13.13;;;6.10;94.30;;;;;;4971075;28;20030;-67
2023/01/23 11:27:26;;;;;;;23.58;12.90;;;6.10;94.30;;;;;;4972236;28;20088;-68
2023/01/23 11:30:01;;;;;;;27.50;13.20;;;6.10;93.90;;;;;;4976493;28;20038;-68
2023/01/23 11:32:31;;;;;;;29.42;13.95;;;6.10;94.10;;;;;;4971731;28;20110;-67
2023/01/23 11:35:14;;;;;;;27.35;13.85;;;6.20;93.60;;;;;;4967357;28;20030;-68
2023/01/23 11:37:41;;;;;;;23.02;12.80;;;6.20;93.40;;;;;;4969623;28;20031;-67
2023/01/23 11:40:11;;;;;;;28.52;14.15;;;6.20;93.50;;;;;;4973192;28;20042;-65
2023/01/23 11:42:40;;;;;;;24.02;12.55;;;6.20;93.80;;;;;;4973538;28;20410;-68
2023/01/23 11:45:28;;;;;;;23.48;12.43;;;6.20;94.00;;;;;;4972061;28;20124;-66
2023/01/23 11:48:04;;;;;;;24.85;12.73;;;6.20;93.70;;;;;;4976281;28;20026;-67
2023/01/23 11:50:30;;;;;;;22.95;12.23;;;6.10;93.60;;;;;;4971627;28;20121;-68
2023/01/23 11:53:34;;;;;;;24.02;12.23;;;6.20;93.50;;;;;;4973721;28;20837;-68
2023/01/23 11:56:15;;;;;;;24.30;11.40;;;6.10;93.60;;;;;;4949334;28;20046;-65
2023/01/23 11:58:41;;;;;;;26.67;13.25;;;6.20;93.70;;;;;;4970575;28;20287;-66
2023/01/23 12:01:06;;;;;;;23.30;11.73;;;6.20;93.70;;;;;;4972997;28;20495;-67
2023/01/23 12:03:52;;;;;;;25.75;14.05;;;6.30;93.70;;;;;;4976420;28;20039;-66
2023/01/23 12:06:33;;;;;;;22.25;11.50;;;6.30;93.70;;;;;;4970976;28;20046;-66
2023/01/23 12:09:11;;;;;;;20.63;12.52;;;6.30;93.30;;;;;;4974021;28;20050;-66
2023/01/23 12:12:06;;;;;;;23.10;12.40;;;6.30;93.40;;;;;;4974580;28;20042;-73
2023/01/23 12:15:04;;;;;;;22.92;11.35;;;6.30;93.30;;;;;;4974088;28;20034;-63
2023/01/23 12:17:54;;;;;;;23.77;13.15;;;6.40;93.50;;;;;;4965569;28;20042;-66
2023/01/23 12:20:42;;;;;;;23.27;12.90;;;6.40;93.30;;;;;;4976294;28;20050;-65
2023/01/23 12:23:31;;;;;;;27.33;12.68;;;6.40;93.30;;;;;;4974606;28;20140;-67
2023/01/23 12:26:05;;;;;;;21.45;11.65;;;6.50;93.30;;;;;;4974300;28;20501;-66
2023/01/23 12:29:24;;;;;;;25.08;14.07;;;6.30;93.30;;;;;;4965482;28;20049;-66
2023/01/23 12:32:00;;;;;;;24.83;13.68;;;6.40;93.30;;;;;;4878876;29;20044;-65
2023/01/23 12:34:49;;;;;;;24.40;13.82;;;6.40;93.80;;;;;;4975682;28;20057;-63
2023/01/23 12:37:29;;;;;;;25.70;12.43;;;6.40;93.70;;;;;;4976058;28;20483;-61
2023/01/23 12:40:21;;;;;;;27.52;14.70;;;6.40;93.60;;;;;;4972551;28;20109;-63
2023/01/23 12:43:09;;;;;;;26.08;12.98;;;6.50;93.50;;;;;;4975070;28;20026;-63
2023/01/23 12:45:39;;;;;;;22.50;12.13;;;6.40;93.50;;;;;;4976335;28;20061;-65
2023/01/23 12:48:29;;;;;;;23.23;12.90;;;6.40;93.40;;;;;;4976701;28;20034;-65
2023/01/23 12:51:01;;;;;;;28.33;13.98;;;6.40;93.40;;;;;;4977144;28;20637;-65
2023/01/23 12:53:31;;;;;;;28.08;13.88;;;6.40;93.60;;;;;;4974734;28;20038;-65
2023/01/23 12:56:06;;;;;;;25.38;12.93;;;6.50;93.30;;;;;;4973640;28;20036;-65
2023/01/23 12:58:36;;;;;;;21.20;12.02;;;6.40;93.30;;;;;;4979564;28;20133;-66
2023/01/23 13:01:07;;;;;;;23.17;13.25;;;6.50;93.30;;;;;;4977174;28;20447;-65
2023/01/23 13:03:57;;;;;;;26.38;13.48;;;6.50;93.20;;;;;;4973853;28;20034;-66
2023/01/23 13:06:41;;;;;;;28.33;13.57;;;6.50;93.40;;;;;;4975560;28;20041;-65